Time;durP1;ratioP1;P1;durP2;ratioP2;P2;SDS_P1;SDS_P2;PMS_P1;PMS_P2;Temp;Humidity;BMP_temperature;BMP_pressure;BME280_temperature;BME280_humidity;BME280_pressure;Samples;Min_cycle;Max_cycle;Signal;HPM_P1;HPM_P2
2021/12/06 00:02:08;;;;;;;0.70;0.10;;;;;;;;;;5054833;28;20488;-64
2021/12/06 00:04:36;;;;;;;0.20;0.10;;;;;;;;;;5054766;28;20109;-64
2021/12/06 00:07:03;;;;;;;1.85;0.30;;;;;;;;;;5054703;28;20471;-65
2021/12/06 00:09:29;;;;;;;0.45;0.10;;;;;;;;;;5054624;28;20044;-65
2021/12/06 00:11:59;;;;;;;0.20;0.20;;;;;;;;;;5054565;28;20013;-64
2021/12/06 00:14:28;;;;;;;0.57;0.10;;;;;;;;;;5054859;28;20025;-64
2021/12/06 00:16:54;;;;;;;0.35;0.15;;;;;;;;;;5053867;28;20028;-65
2021/12/06 00:19:19;;;;;;;1.08;0.32;;;;;;;;;;5054180;28;20044;-65
2021/12/06 00:21:45;;;;;;;0.55;0.20;;;;;;;;;;5054563;28;20410;-65
2021/12/06 00:24:10;;;;;;;0.13;0.10;;;;;;;;;;5054590;28;20500;-65
2021/12/06 00:26:35;;;;;;;1.00;0.20;;;;;;;;;;5054470;28;20029;-65
2021/12/06 00:29:00;;;;;;;0.68;0.20;;;;;;;;;;5054375;28;20300;-65
2021/12/06 00:31:30;;;;;;;0.90;0.20;;;;;;;;;;5054261;28;20024;-65
2021/12/06 00:34:00;;;;;;;0.57;0.25;;;;;;;;;;5054467;28;20249;-65
2021/12/06 00:36:28;;;;;;;0.15;0.10;;;;;;;;;;5054167;28;20456;-65
2021/12/06 00:38:54;;;;;;;1.02;0.40;;;;;;;;;;5054312;28;20062;-65
2021/12/06 00:41:19;;;;;;;0.28;0.28;;;;;;;;;;5054107;28;20474;-65
2021/12/06 00:43:44;;;;;;;1.88;0.40;;;;;;;;;;5054081;28;20025;-65
2021/12/06 00:46:09;;;;;;;0.52;0.10;;;;;;;;;;5054087;28;20029;-65
2021/12/06 00:48:34;;;;;;;0.47;0.10;;;;;;;;;;5054020;28;20483;-65
2021/12/06 00:51:00;;;;;;;0.57;0.10;;;;;;;;;;5054000;28;20240;-65
2021/12/06 00:53:25;;;;;;;0.85;0.10;;;;;;;;;;5053884;28;20013;-66
2021/12/06 00:55:50;;;;;;;0.20;0.10;;;;;;;;;;5053755;28;20039;-65
2021/12/06 00:58:15;;;;;;;1.30;0.20;;;;;;;;;;5053732;28;20602;-65
2021/12/06 01:00:43;;;;;;;0.20;0.10;;;;;;;;;;5053917;28;20289;-65
2021/12/06 01:03:10;;;;;;;0.85;0.10;;;;;;;;;;5053558;28;20056;-65
2021/12/06 01:05:36;;;;;;;0.85;0.20;;;;;;;;;;5053520;28;20555;-65
2021/12/06 01:08:01;;;;;;;2.10;0.52;;;;;;;;;;5053742;28;20043;-65
2021/12/06 01:10:27;;;;;;;0.95;0.20;;;;;;;;;;5053521;28;20531;-64
2021/12/06 01:12:53;;;;;;;2.08;0.20;;;;;;;;;;5053517;28;20017;-64
2021/12/06 01:15:18;;;;;;;0.20;0.20;;;;;;;;;;5053450;28;20017;-65
2021/12/06 01:17:44;;;;;;;0.63;0.20;;;;;;;;;;5053463;28;20059;-64
2021/12/06 01:20:11;;;;;;;0.22;0.10;;;;;;;;;;5052150;28;20020;-64
2021/12/06 01:22:45;;;;;;;0.38;0.17;;;;;;;;;;5053328;28;20017;-65
2021/12/06 01:25:25;;;;;;;0.40;0.20;;;;;;;;;;5053253;28;20380;-65
2021/12/06 01:30:30;;;;;;;0.40;0.05;;;;;;;;;;5052984;28;20104;-65
2021/12/06 01:41:07;;;;;;;1.07;0.53;;;;;;;;;;5053052;28;20083;-65
2021/12/06 01:43:32;;;;;;;0.40;0.27;;;;;;;;;;5052741;28;20028;-64
2021/12/06 01:45:57;;;;;;;0.50;0.20;;;;;;;;;;5052977;28;20611;-65
2021/12/06 01:48:22;;;;;;;0.20;0.10;;;;;;;;;;5053009;28;20248;-64
2021/12/06 01:50:48;;;;;;;0.32;0.17;;;;;;;;;;5053194;28;20747;-66
2021/12/06 01:53:13;;;;;;;0.90;0.30;;;;;;;;;;5052752;28;20372;-65
2021/12/06 01:55:40;;;;;;;0.22;0.17;;;;;;;;;;5052667;28;20385;-65
2021/12/06 01:58:06;;;;;;;0.22;0.20;;;;;;;;;;5052790;28;20023;-65
2021/12/06 02:00:39;;;;;;;1.17;0.25;;;;;;;;;;5052587;28;20412;-65
2021/12/06 02:03:05;;;;;;;1.05;0.10;;;;;;;;;;5059717;22;20049;-65
2021/12/06 02:05:30;;;;;;;1.75;0.10;;;;;;;;;;5052347;28;20028;-65
2021/12/06 02:07:55;;;;;;;0.65;0.20;;;;;;;;;;5052724;28;20024;-65
2021/12/06 02:10:22;;;;;;;0.47;0.10;;;;;;;;;;5052564;28;20105;-65
2021/12/06 02:12:50;;;;;;;0.65;0.13;;;;;;;;;;5052606;28;20013;-65
2021/12/06 02:17:59;;;;;;;1.05;0.20;;;;;;;;;;5052777;28;20456;-64
2021/12/06 02:20:28;;;;;;;0.63;0.22;;;;;;;;;;5052315;28;20025;-65
2021/12/06 02:22:54;;;;;;;0.32;0.10;;;;;;;;;;5052379;28;20027;-65
2021/12/06 02:25:20;;;;;;;0.55;0.10;;;;;;;;;;5052188;28;20017;-65
2021/12/06 02:27:46;;;;;;;0.25;0.22;;;;;;;;;;5052339;28;20040;-65
2021/12/06 02:30:12;;;;;;;0.35;0.17;;;;;;;;;;5052236;28;20061;-64
2021/12/06 02:32:37;;;;;;;0.93;0.20;;;;;;;;;;5052215;28;20032;-65
2021/12/06 02:35:04;;;;;;;0.22;0.10;;;;;;;;;;5052195;28;20017;-65
2021/12/06 02:37:32;;;;;;;0.47;0.20;;;;;;;;;;5052106;28;20031;-65
2021/12/06 02:39:59;;;;;;;0.75;0.20;;;;;;;;;;5051865;28;20043;-65
2021/12/06 02:42:24;;;;;;;0.40;0.20;;;;;;;;;;5051788;28;20032;-65
2021/12/06 02:44:50;;;;;;;0.30;0.10;;;;;;;;;;5052211;28;20021;-65
2021/12/06 02:47:16;;;;;;;0.25;0.10;;;;;;;;;;5051921;28;20508;-66
2021/12/06 02:49:41;;;;;;;0.52;0.00;;;;;;;;;;5052091;28;20013;-65
2021/12/06 02:52:07;;;;;;;0.30;0.20;;;;;;;;;;5052154;28;20032;-65
2021/12/06 02:54:33;;;;;;;0.82;0.10;;;;;;;;;;5051946;28;20040;-65
2021/12/06 02:59:36;;;;;;;0.63;0.20;;;;;;;;;;5052214;28;20128;-65
2021/12/06 03:02:04;;;;;;;0.73;0.10;;;;;;;;;;5051810;28;20106;-65
2021/12/06 03:04:29;;;;;;;0.10;0.10;;;;;;;;;;5051856;28;20431;-65
2021/12/06 03:06:55;;;;;;;0.52;0.17;;;;;;;;;;5051823;28;20028;-65
2021/12/06 03:09:23;;;;;;;1.73;0.20;;;;;;;;;;5051711;28;20009;-65
2021/12/06 03:11:52;;;;;;;0.40;0.20;;;;;;;;;;5051830;28;20508;-64
2021/12/06 03:14:19;;;;;;;1.05;0.20;;;;;;;;;;5051744;28;20456;-65
2021/12/06 03:16:44;;;;;;;0.40;0.10;;;;;;;;;;5052212;28;20032;-65
2021/12/06 03:19:10;;;;;;;0.40;0.15;;;;;;;;;;5051763;28;20021;-65
2021/12/06 03:21:36;;;;;;;0.20;0.20;;;;;;;;;;5051727;28;20027;-66
2021/12/06 03:24:01;;;;;;;0.88;0.52;;;;;;;;;;5051872;28;20060;-65
2021/12/06 03:26:27;;;;;;;0.43;0.10;;;;;;;;;;5051538;28;20053;-65
2021/12/06 03:28:53;;;;;;;0.22;0.05;;;;;;;;;;5051785;28;20541;-65
2021/12/06 03:31:18;;;;;;;2.28;0.55;;;;;;;;;;5051803;28;20032;-65
2021/12/06 03:33:45;;;;;;;0.40;0.10;;;;;;;;;;5051691;28;20013;-65
2021/12/06 03:36:10;;;;;;;0.40;0.15;;;;;;;;;;5051690;28;20052;-66
2021/12/06 03:38:36;;;;;;;1.77;0.35;;;;;;;;;;5051563;28;20056;-65
2021/12/06 03:41:02;;;;;;;0.20;0.13;;;;;;;;;;5051574;28;20036;-65
2021/12/06 03:43:27;;;;;;;0.40;0.20;;;;;;;;;;5051498;28;20078;-66
2021/12/06 03:45:52;;;;;;;1.02;0.25;;;;;;;;;;5051500;28;20426;-65
2021/12/06 03:48:18;;;;;;;0.55;0.10;;;;;;;;;;5051433;28;20423;-65
2021/12/06 03:50:44;;;;;;;0.43;0.10;;;;;;;;;;5051626;28;20032;-65
2021/12/06 03:53:09;;;;;;;0.52;0.10;;;;;;;;;;5054252;28;20021;-66
2021/12/06 03:55:34;;;;;;;0.63;0.10;;;;;;;;;;5054983;28;20036;-65
2021/12/06 03:58:00;;;;;;;0.35;0.13;;;;;;;;;;5055117;28;20253;-65
2021/12/06 04:00:25;;;;;;;0.22;0.10;;;;;;;;;;5054912;28;20464;-65
2021/12/06 04:02:50;;;;;;;0.45;0.10;;;;;;;;;;5054919;28;20052;-65
2021/12/06 04:05:16;;;;;;;0.13;0.10;;;;;;;;;;5055003;28;20025;-66
2021/12/06 04:07:41;;;;;;;1.10;0.20;;;;;;;;;;5054863;28;20476;-65
2021/12/06 04:10:08;;;;;;;0.50;0.10;;;;;;;;;;5054913;28;20019;-65
2021/12/06 04:12:33;;;;;;;1.15;0.30;;;;;;;;;;5054514;28;20083;-65
2021/12/06 04:14:59;;;;;;;0.10;0.00;;;;;;;;;;5054760;28;20464;-64
2021/12/06 04:17:24;;;;;;;1.02;0.20;;;;;;;;;;5054630;28;20071;-65
2021/12/06 04:19:50;;;;;;;0.10;0.10;;;;;;;;;;5054956;28;20032;-65
2021/12/06 04:22:16;;;;;;;0.38;0.22;;;;;;;;;;5054578;28;20021;-65
2021/12/06 04:24:41;;;;;;;1.65;0.20;;;;;;;;;;5054667;28;20460;-65
2021/12/06 04:27:14;;;;;;;1.08;0.38;;;;;;;;;;5054436;28;20048;-65
2021/12/06 04:29:43;;;;;;;0.30;0.20;;;;;;;;;;5054442;28;20100;-65
2021/12/06 04:32:09;;;;;;;1.67;0.20;;;;;;;;;;5054386;28;20017;-65
2021/12/06 04:34:34;;;;;;;0.65;0.10;;;;;;;;;;5054375;28;20389;-65
2021/12/06 04:36:59;;;;;;;0.40;0.10;;;;;;;;;;5052969;28;20028;-65
2021/12/06 04:39:24;;;;;;;0.50;0.10;;;;;;;;;;5054291;28;20017;-65
2021/12/06 04:41:50;;;;;;;0.10;0.00;;;;;;;;;;5054538;28;20320;-65
2021/12/06 04:44:15;;;;;;;0.90;0.20;;;;;;;;;;5054107;28;20032;-65
2021/12/06 04:46:41;;;;;;;0.40;0.32;;;;;;;;;;5054371;28;20025;-65
2021/12/06 04:49:06;;;;;;;0.57;0.32;;;;;;;;;;5052776;28;20016;-65
2021/12/06 04:51:32;;;;;;;0.75;0.10;;;;;;;;;;5054194;28;20055;-65
2021/12/06 04:53:58;;;;;;;0.22;0.10;;;;;;;;;;5053943;28;20100;-65
2021/12/06 04:56:28;;;;;;;0.63;0.10;;;;;;;;;;5052528;28;20468;-65
2021/12/06 04:59:00;;;;;;;0.60;0.10;;;;;;;;;;5053938;28;20032;-65
2021/12/06 05:01:28;;;;;;;0.22;0.10;;;;;;;;;;5053643;28;20492;-66
2021/12/06 05:03:53;;;;;;;0.40;0.25;;;;;;;;;;5053090;28;20036;-65
2021/12/06 05:06:20;;;;;;;0.93;0.22;;;;;;;;;;5053527;28;20028;-65
2021/12/06 05:08:52;;;;;;;0.70;0.45;;;;;;;;;;5053724;28;20017;-65
2021/12/06 05:11:18;;;;;;;0.75;0.20;;;;;;;;;;5053448;28;20021;-65
2021/12/06 05:13:44;;;;;;;0.88;0.35;;;;;;;;;;5053648;28;20052;-65
2021/12/06 05:16:09;;;;;;;0.52;0.17;;;;;;;;;;5053565;28;20539;-65
2021/12/06 05:18:35;;;;;;;1.02;0.10;;;;;;;;;;5053787;28;20044;-65
2021/12/06 05:21:00;;;;;;;1.27;0.10;;;;;;;;;;5053473;28;20368;-64
2021/12/06 05:23:25;;;;;;;0.40;0.22;;;;;;;;;;5053302;28;20315;-65
2021/12/06 05:25:50;;;;;;;0.82;0.20;;;;;;;;;;5053370;28;20072;-65
2021/12/06 05:28:17;;;;;;;1.10;0.20;;;;;;;;;;5053295;28;20036;-65
2021/12/06 05:30:44;;;;;;;0.40;0.13;;;;;;;;;;5053375;28;20130;-65
2021/12/06 05:33:17;;;;;;;0.85;0.10;;;;;;;;;;5053150;28;20017;-65
2021/12/06 05:35:42;;;;;;;1.45;0.35;;;;;;;;;;5053228;28;20013;-65
2021/12/06 05:38:07;;;;;;;0.68;0.28;;;;;;;;;;5053146;28;20507;-65
2021/12/06 05:40:33;;;;;;;0.77;0.10;;;;;;;;;;5053043;28;20028;-66
2021/12/06 05:43:00;;;;;;;1.27;0.10;;;;;;;;;;5051571;28;20289;-65
2021/12/06 05:45:26;;;;;;;1.13;0.15;;;;;;;;;;5052827;28;20024;-65
2021/12/06 05:47:51;;;;;;;1.02;0.10;;;;;;;;;;5051920;28;20380;-65
2021/12/06 05:50:18;;;;;;;0.75;0.10;;;;;;;;;;5051485;28;20020;-66
2021/12/06 05:52:44;;;;;;;0.70;0.03;;;;;;;;;;5052986;28;20017;-65
2021/12/06 05:55:09;;;;;;;0.65;0.10;;;;;;;;;;5052774;28;20517;-65
2021/12/06 05:57:35;;;;;;;0.10;0.10;;;;;;;;;;5052666;28;20025;-65
2021/12/06 06:00:00;;;;;;;0.10;0.10;;;;;;;;;;5053102;28;20017;-65
2021/12/06 06:02:26;;;;;;;0.28;0.20;;;;;;;;;;5051164;28;20048;-65
2021/12/06 06:04:51;;;;;;;0.20;0.10;;;;;;;;;;5052846;28;20094;-65
2021/12/06 06:07:16;;;;;;;0.80;0.10;;;;;;;;;;5052393;28;20496;-65
2021/12/06 06:09:41;;;;;;;0.33;0.10;;;;;;;;;;5052603;28;20448;-65
2021/12/06 06:12:06;;;;;;;2.25;0.38;;;;;;;;;;5052644;28;20099;-65
2021/12/06 06:14:32;;;;;;;0.20;0.08;;;;;;;;;;5052370;28;20020;-65
2021/12/06 06:17:07;;;;;;;1.20;0.20;;;;;;;;;;5051243;28;20048;-65
2021/12/06 06:19:32;;;;;;;0.25;0.10;;;;;;;;;;5052277;28;20028;-66
2021/12/06 06:21:57;;;;;;;0.40;0.20;;;;;;;;;;5052494;28;20025;-65
2021/12/06 06:24:23;;;;;;;0.17;0.13;;;;;;;;;;5052275;28;20083;-65
2021/12/06 06:26:48;;;;;;;0.10;0.00;;;;;;;;;;5052413;28;20433;-65
2021/12/06 06:29:13;;;;;;;0.30;0.20;;;;;;;;;;5052178;28;20025;-65
2021/12/06 06:31:39;;;;;;;1.40;0.20;;;;;;;;;;5052492;28;20249;-65
2021/12/06 06:34:05;;;;;;;0.47;0.20;;;;;;;;;;5052309;28;20017;-64
2021/12/06 06:36:30;;;;;;;0.52;0.20;;;;;;;;;;5052121;28;20312;-65
2021/12/06 06:38:55;;;;;;;0.57;0.13;;;;;;;;;;5052291;28;20025;-64
2021/12/06 06:41:20;;;;;;;0.20;0.20;;;;;;;;;;5051997;28;20678;-64
2021/12/06 06:43:46;;;;;;;0.73;0.40;;;;;;;;;;5051231;28;20289;-64
2021/12/06 06:46:11;;;;;;;0.20;0.05;;;;;;;;;;5052038;28;20025;-65
2021/12/06 06:48:37;;;;;;;0.00;0.00;;;;;;;;;;5052135;28;20032;-65
2021/12/06 06:51:02;;;;;;;0.73;0.10;;;;;;;;;;5052018;28;20021;-65
2021/12/06 06:53:28;;;;;;;0.05;0.00;;;;;;;;;;5052028;28;20020;-65
2021/12/06 06:55:53;;;;;;;0.35;0.20;;;;;;;;;;5051986;28;20465;-65
2021/12/06 06:58:19;;;;;;;0.70;0.10;;;;;;;;;;5052152;28;20214;-65
2021/12/06 07:00:44;;;;;;;1.80;0.30;;;;;;;;;;5052059;28;20484;-65
2021/12/06 07:03:09;;;;;;;0.10;0.00;;;;;;;;;;5051739;28;20293;-65
2021/12/06 07:05:35;;;;;;;0.40;0.20;;;;;;;;;;5051669;28;20249;-65
2021/12/06 07:08:01;;;;;;;0.22;0.10;;;;;;;;;;5051942;28;20645;-66
2021/12/06 07:10:26;;;;;;;0.20;0.00;;;;;;;;;;5051773;28;20013;-65
2021/12/06 07:12:52;;;;;;;1.35;0.00;;;;;;;;;;5051866;28;20273;-64
2021/12/06 07:15:19;;;;;;;0.20;0.10;;;;;;;;;;5051744;28;20066;-65
2021/12/06 07:17:45;;;;;;;1.17;0.10;;;;;;;;;;5051569;28;20032;-64
2021/12/06 07:20:12;;;;;;;0.43;0.15;;;;;;;;;;5051860;28;20017;-64
2021/12/06 07:22:37;;;;;;;0.85;0.30;;;;;;;;;;5050440;28;20025;-64
2021/12/06 07:25:03;;;;;;;1.48;0.20;;;;;;;;;;5051728;28;20025;-64
2021/12/06 07:27:29;;;;;;;0.68;0.10;;;;;;;;;;5053391;28;20229;-64
2021/12/06 07:29:54;;;;;;;0.10;0.10;;;;;;;;;;5055605;28;20029;-65
2021/12/06 07:32:19;;;;;;;0.37;0.10;;;;;;;;;;5056719;28;20028;-65
2021/12/06 07:34:44;;;;;;;0.40;0.10;;;;;;;;;;5069391;28;20464;-65
2021/12/06 07:37:09;;;;;;;0.20;0.10;;;;;;;;;;5074800;28;20020;-65
2021/12/06 07:39:34;;;;;;;0.20;0.10;;;;;;;;;;5059385;28;20315;-65
2021/12/06 07:42:00;;;;;;;0.32;0.10;;;;;;;;;;5069098;28;20021;-65
2021/12/06 07:44:25;;;;;;;0.60;0.20;;;;;;;;;;5062623;28;20526;-65
2021/12/06 07:46:52;;;;;;;0.43;0.15;;;;;;;;;;5056596;28;20304;-67
2021/12/06 07:49:17;;;;;;;0.38;0.25;;;;;;;;;;5054007;28;20099;-66
2021/12/06 07:51:42;;;;;;;0.75;0.20;;;;;;;;;;5050100;28;20097;-64
2021/12/06 07:54:08;;;;;;;0.50;0.13;;;;;;;;;;5055652;28;20075;-65
2021/12/06 07:56:33;;;;;;;0.65;0.10;;;;;;;;;;5053618;28;20270;-65
2021/12/06 07:58:58;;;;;;;0.67;0.20;;;;;;;;;;5057290;28;20492;-64
2021/12/06 08:01:23;;;;;;;0.20;0.10;;;;;;;;;;5053020;28;20296;-65
2021/12/06 08:03:48;;;;;;;1.40;0.10;;;;;;;;;;5052863;28;20788;-65
2021/12/06 08:06:14;;;;;;;0.95;0.20;;;;;;;;;;5053247;28;20017;-65
2021/12/06 08:08:40;;;;;;;0.30;0.10;;;;;;;;;;5054043;28;20074;-64
2021/12/06 08:11:08;;;;;;;0.38;0.20;;;;;;;;;;5049482;28;20112;-64
2021/12/06 08:13:34;;;;;;;0.30;0.10;;;;;;;;;;5055127;28;20135;-64
2021/12/06 08:16:02;;;;;;;0.10;0.10;;;;;;;;;;5060586;28;20024;-64
2021/12/06 08:18:27;;;;;;;0.75;0.20;;;;;;;;;;5052010;28;20120;-64
2021/12/06 08:20:54;;;;;;;0.68;0.20;;;;;;;;;;5053371;28;20573;-64
2021/12/06 08:23:19;;;;;;;0.93;0.20;;;;;;;;;;5052943;28;20024;-64
2021/12/06 08:25:47;;;;;;;0.10;0.10;;;;;;;;;;5055223;28;20050;-64
2021/12/06 08:28:14;;;;;;;0.40;0.13;;;;;;;;;;5053469;28;20021;-65
2021/12/06 08:30:39;;;;;;;1.88;0.28;;;;;;;;;;5053562;28;20150;-64
2021/12/06 08:33:05;;;;;;;0.40;0.20;;;;;;;;;;5053108;28;20108;-65
2021/12/06 08:35:31;;;;;;;0.80;0.20;;;;;;;;;;5059560;28;20104;-64
2021/12/06 08:37:57;;;;;;;0.68;0.20;;;;;;;;;;5045478;28;20604;-64
2021/12/06 08:40:23;;;;;;;1.15;0.25;;;;;;;;;;5047277;28;20108;-66
2021/12/06 08:42:48;;;;;;;1.02;0.65;;;;;;;;;;5055863;28;20025;-66
2021/12/06 08:45:14;;;;;;;0.43;0.13;;;;;;;;;;5053140;28;20053;-66
2021/12/06 08:47:39;;;;;;;0.20;0.10;;;;;;;;;;5054638;28;20044;-66
2021/12/06 08:50:06;;;;;;;0.95;0.10;;;;;;;;;;5053055;28;20021;-65
2021/12/06 08:52:31;;;;;;;0.50;0.10;;;;;;;;;;5054149;28;20435;-65
2021/12/06 08:54:57;;;;;;;0.70;0.20;;;;;;;;;;5055586;28;20029;-65
2021/12/06 08:57:22;;;;;;;0.77;0.23;;;;;;;;;;5053277;28;20246;-65
2021/12/06 08:59:47;;;;;;;0.25;0.10;;;;;;;;;;5059816;28;20257;-65
2021/12/06 09:02:13;;;;;;;0.90;0.10;;;;;;;;;;5055969;28;20124;-66
2021/12/06 09:04:39;;;;;;;1.65;0.30;;;;;;;;;;5051741;28;20017;-66
2021/12/06 09:07:10;;;;;;;1.33;0.20;;;;;;;;;;5046113;28;20040;-66
2021/12/06 09:09:36;;;;;;;0.40;0.10;;;;;;;;;;5072783;28;20016;-66
2021/12/06 09:12:01;;;;;;;0.30;0.10;;;;;;;;;;5073681;28;20027;-66
2021/12/06 09:14:28;;;;;;;0.95;0.20;;;;;;;;;;5062477;28;20028;-65
2021/12/06 09:16:54;;;;;;;0.63;0.25;;;;;;;;;;5035018;28;20022;-66
2021/12/06 09:19:19;;;;;;;1.20;0.13;;;;;;;;;;5038508;28;20471;-65
2021/12/06 09:21:44;;;;;;;1.05;0.30;;;;;;;;;;5055731;28;20029;-66
2021/12/06 09:24:12;;;;;;;0.37;0.20;;;;;;;;;;5056757;28;20074;-66
2021/12/06 09:26:37;;;;;;;0.70;0.20;;;;;;;;;;5061897;28;20594;-65
2021/12/06 09:29:03;;;;;;;0.53;0.10;;;;;;;;;;5053630;28;20104;-66
2021/12/06 09:31:29;;;;;;;0.35;0.10;;;;;;;;;;5052404;28;20725;-65
2021/12/06 09:33:54;;;;;;;1.00;0.20;;;;;;;;;;5053333;28;20032;-65
2021/12/06 09:36:20;;;;;;;1.30;0.10;;;;;;;;;;5052970;28;20102;-65
2021/12/06 09:38:46;;;;;;;0.25;0.10;;;;;;;;;;5053281;28;20316;-65
2021/12/06 09:41:19;;;;;;;0.32;0.17;;;;;;;;;;5043948;28;20763;-66
2021/12/06 09:43:44;;;;;;;0.10;0.10;;;;;;;;;;5053023;28;20399;-66
2021/12/06 09:46:10;;;;;;;0.30;0.10;;;;;;;;;;5052912;28;20025;-66
2021/12/06 09:48:36;;;;;;;0.68;0.28;;;;;;;;;;5053018;28;20028;-66
2021/12/06 09:51:04;;;;;;;0.90;0.13;;;;;;;;;;5052961;28;20364;-65
2021/12/06 09:53:31;;;;;;;0.20;0.13;;;;;;;;;;5052751;28;20109;-65
2021/12/06 09:55:58;;;;;;;0.52;0.10;;;;;;;;;;5053198;28;20029;-66
2021/12/06 09:58:24;;;;;;;0.98;0.10;;;;;;;;;;5052638;28;20024;-66
2021/12/06 10:00:52;;;;;;;0.95;0.10;;;;;;;;;;5052895;28;20032;-66
2021/12/06 10:03:23;;;;;;;0.32;0.10;;;;;;;;;;5052429;28;20045;-65
2021/12/06 10:05:48;;;;;;;0.65;0.00;;;;;;;;;;5052659;28;20053;-65
2021/12/06 10:08:13;;;;;;;0.50;0.15;;;;;;;;;;5051336;28;20048;-65
2021/12/06 10:10:39;;;;;;;0.45;0.10;;;;;;;;;;5052873;28;20021;-65
2021/12/06 10:13:04;;;;;;;1.65;0.30;;;;;;;;;;5052548;28;20066;-65
2021/12/06 10:15:30;;;;;;;0.45;0.10;;;;;;;;;;5052386;28;20017;-66
2021/12/06 10:17:56;;;;;;;0.25;0.10;;;;;;;;;;5052609;28;20020;-66
2021/12/06 10:20:22;;;;;;;0.60;0.10;;;;;;;;;;5052343;28;20040;-66
2021/12/06 10:22:50;;;;;;;0.43;0.10;;;;;;;;;;5052301;28;20017;-65
2021/12/06 10:25:15;;;;;;;1.40;0.20;;;;;;;;;;5032306;28;20100;-65
2021/12/06 10:27:50;;;;;;;0.37;0.30;;;;;;;;;;5032365;28;20109;-65
2021/12/06 10:30:15;;;;;;;;;;;;;;;;;;5033008;28;20711;-65
2021/12/06 10:32:41;;;;;;;0.45;0.00;;;;;;;;;;5032693;28;20595;-66
2021/12/06 10:35:10;;;;;;;0.13;0.10;;;;;;;;;;5052219;28;20426;-66
2021/12/06 10:37:43;;;;;;;0.68;0.17;;;;;;;;;;5050831;28;20063;-66
2021/12/06 10:40:10;;;;;;;0.75;0.30;;;;;;;;;;5052443;28;20041;-65
2021/12/06 10:42:37;;;;;;;0.38;0.10;;;;;;;;;;5052444;28;20021;-66
2021/12/06 10:45:22;;;;;;;0.25;0.10;;;;;;;;;;5052090;28;20372;-65
2021/12/06 10:48:23;;;;;;;0.30;0.05;;;;;;;;;;5052419;28;20066;-66
2021/12/06 10:50:51;;;;;;;0.10;0.10;;;;;;;;;;5010018;28;20018;-64
2021/12/06 10:53:18;;;;;;;0.70;0.20;;;;;;;;;;5009832;28;20034;-67
2021/12/06 10:55:44;;;;;;;0.57;0.10;;;;;;;;;;5009948;28;20025;-66
2021/12/06 10:58:15;;;;;;;0.77;0.10;;;;;;;;;;5009959;28;20034;-66
2021/12/06 11:00:43;;;;;;;0.70;0.20;;;;;;;;;;5009878;28;20052;-66
2021/12/06 11:03:20;;;;;;;0.28;0.28;;;;;;;;;;5006175;28;20421;-66
2021/12/06 11:05:48;;;;;;;1.42;0.20;;;;;;;;;;4994107;28;20394;-66
2021/12/06 11:08:15;;;;;;;0.30;0.10;;;;;;;;;;4994038;28;20126;-67
2021/12/06 11:10:46;;;;;;;0.63;0.20;;;;;;;;;;4993484;28;20366;-66
2021/12/06 11:13:28;;;;;;;0.47;0.03;;;;;;;;;;4993462;28;20018;-66
2021/12/06 11:15:54;;;;;;;0.30;0.10;;;;;;;;;;4993399;28;20030;-66
2021/12/06 11:18:37;;;;;;;0.65;0.20;;;;;;;;;;4993211;28;20057;-67
2021/12/06 11:21:03;;;;;;;0.30;0.05;;;;;;;;;;4993404;28;20022;-66
2021/12/06 11:23:28;;;;;;;1.65;0.35;;;;;;;;;;4993440;28;20045;-65
2021/12/06 11:25:58;;;;;;;0.52;0.00;;;;;;;;;;5052680;28;20469;-65
2021/12/06 11:28:27;;;;;;;0.47;0.28;;;;;;;;;;5055755;28;20013;-66
2021/12/06 11:31:04;;;;;;;1.13;0.15;;;;;;;;;;5055764;28;20028;-65
2021/12/06 11:33:30;;;;;;;0.20;0.10;;;;;;;;;;5054627;28;20025;-66
2021/12/06 11:35:56;;;;;;;0.88;0.17;;;;;;;;;;5055291;28;20483;-66
2021/12/06 11:38:21;;;;;;;0.68;0.00;;;;;;;;;;5055314;28;20024;-66
2021/12/06 11:40:46;;;;;;;0.30;0.20;;;;;;;;;;5055571;28;20028;-66
2021/12/06 11:43:13;;;;;;;1.40;0.10;;;;;;;;;;5053923;28;20064;-66
2021/12/06 11:45:40;;;;;;;0.65;0.10;;;;;;;;;;5055003;28;20348;-66
2021/12/06 11:48:05;;;;;;;1.27;0.20;;;;;;;;;;5055378;28;20020;-66
2021/12/06 11:50:31;;;;;;;0.43;0.10;;;;;;;;;;5055093;28;20021;-66
2021/12/06 11:53:02;;;;;;;1.80;0.40;;;;;;;;;;5055121;28;20021;-65
2021/12/06 11:55:27;;;;;;;0.32;0.10;;;;;;;;;;5055009;28;20063;-66
2021/12/06 11:57:54;;;;;;;1.03;0.10;;;;;;;;;;5055164;28;20037;-66
2021/12/06 12:00:20;;;;;;;0.77;0.13;;;;;;;;;;5054888;28;20028;-66
2021/12/06 12:02:53;;;;;;;1.48;0.15;;;;;;;;;;5054958;28;20060;-66
2021/12/06 12:05:26;;;;;;;0.10;0.10;;;;;;;;;;5055302;28;20032;-66
2021/12/06 12:07:51;;;;;;;0.30;0.00;;;;;;;;;;5054882;28;20021;-65
2021/12/06 12:10:37;;;;;;;1.15;0.20;;;;;;;;;;5054770;28;20104;-65
2021/12/06 12:13:03;;;;;;;0.13;0.10;;;;;;;;;;4992769;28;20030;-65
2021/12/06 12:15:28;;;;;;;0.20;0.20;;;;;;;;;;4982565;28;20533;-66
2021/12/06 12:17:54;;;;;;;0.82;0.17;;;;;;;;;;4986144;28;20050;-65
2021/12/06 12:20:23;;;;;;;0.50;0.10;;;;;;;;;;4992661;28;20030;-66
2021/12/06 12:22:54;;;;;;;0.65;0.15;;;;;;;;;;4973362;28;20501;-66
2021/12/06 12:25:26;;;;;;;0.10;0.10;;;;;;;;;;4973223;28;20038;-66
2021/12/06 12:30:54;;;;;;;1.15;0.20;;;;;;;;;;4973239;28;20042;-66
2021/12/06 12:33:20;;;;;;;0.45;0.25;;;;;;;;;;4973003;28;20045;-66
2021/12/06 12:35:46;;;;;;;0.82;0.30;;;;;;;;;;4961966;28;20070;-66
2021/12/06 12:38:11;;;;;;;0.73;0.00;;;;;;;;;;4953806;29;20034;-66
2021/12/06 12:40:44;;;;;;;0.90;0.20;;;;;;;;;;4968661;28;20056;-66
2021/12/06 12:43:11;;;;;;;0.20;0.20;;;;;;;;;;4972755;28;20127;-66
2021/12/06 12:45:39;;;;;;;0.55;0.20;;;;;;;;;;4988198;28;20553;-67
2021/12/06 12:48:04;;;;;;;0.63;0.20;;;;;;;;;;4980189;28;20022;-66
2021/12/06 12:50:30;;;;;;;0.20;0.20;;;;;;;;;;5006454;28;20103;-66
2021/12/06 12:52:59;;;;;;;0.20;0.10;;;;;;;;;;5034213;28;20033;-67
2021/12/06 12:55:27;;;;;;;0.85;0.10;;;;;;;;;;5017641;28;20042;-67
2021/12/06 12:58:24;;;;;;;0.45;0.10;;;;;;;;;;5012756;28;20044;-67
2021/12/06 13:00:56;;;;;;;0.10;0.00;;;;;;;;;;5007630;28;20046;-66
2021/12/06 13:03:38;;;;;;;0.20;0.10;;;;;;;;;;5010380;28;20076;-67
2021/12/06 13:06:14;;;;;;;0.10;0.00;;;;;;;;;;4980072;28;20301;-66
2021/12/06 13:08:39;;;;;;;0.45;0.10;;;;;;;;;;4995732;28;20079;-67
2021/12/06 13:11:05;;;;;;;0.55;0.20;;;;;;;;;;4975329;28;20026;-67
2021/12/06 13:13:39;;;;;;;0.10;0.10;;;;;;;;;;4991661;28;20069;-66
2021/12/06 13:16:46;;;;;;;0.00;0.00;;;;;;;;;;4991704;28;20034;-66
2021/12/06 13:19:34;;;;;;;0.80;0.13;;;;;;;;;;4992656;28;20026;-66
2021/12/06 13:22:07;;;;;;;0.60;0.17;;;;;;;;;;4993634;28;20102;-66
2021/12/06 13:24:35;;;;;;;0.75;0.30;;;;;;;;;;5004340;28;20030;-67
2021/12/06 13:27:02;;;;;;;0.38;0.20;;;;;;;;;;5008804;28;20105;-67
2021/12/06 13:29:47;;;;;;;0.93;0.20;;;;;;;;;;4992004;28;20061;-67
2021/12/06 13:32:28;;;;;;;1.13;0.13;;;;;;;;;;5001095;28;20493;-66
2021/12/06 13:34:55;;;;;;;0.20;0.10;;;;;;;;;;4996775;28;20507;-66
2021/12/06 13:37:24;;;;;;;0.75;0.17;;;;;;;;;;5050936;28;20050;-66
2021/12/06 13:39:50;;;;;;;0.20;0.20;;;;;;;;;;5054835;28;20126;-65
2021/12/06 13:42:35;;;;;;;0.13;0.10;;;;;;;;;;5049411;28;20025;-64
2021/12/06 13:45:01;;;;;;;1.45;0.10;;;;;;;;;;5050640;28;20060;-65
2021/12/06 13:47:27;;;;;;;0.70;0.10;;;;;;;;;;5051503;28;20023;-64
2021/12/06 13:49:52;;;;;;;0.10;0.00;;;;;;;;;;5051524;28;20107;-65
2021/12/06 13:52:31;;;;;;;0.38;0.10;;;;;;;;;;5051749;28;20021;-65
2021/12/06 13:54:56;;;;;;;0.22;0.10;;;;;;;;;;5052366;28;20372;-66
2021/12/06 13:57:21;;;;;;;0.10;0.10;;;;;;;;;;5051856;28;20032;-66
2021/12/06 13:59:54;;;;;;;0.70;0.10;;;;;;;;;;5042212;28;20036;-67
2021/12/06 14:02:24;;;;;;;0.93;0.10;;;;;;;;;;5043741;28;20381;-67
2021/12/06 14:04:50;;;;;;;1.65;0.20;;;;;;;;;;5052028;28;20029;-66
2021/12/06 14:07:17;;;;;;;0.10;0.10;;;;;;;;;;5050525;28;20093;-67
2021/12/06 14:09:43;;;;;;;0.95;0.08;;;;;;;;;;5050288;28;20024;-66
2021/12/06 14:12:11;;;;;;;0.52;0.10;;;;;;;;;;5052156;28;20020;-66
2021/12/06 14:14:38;;;;;;;0.40;0.22;;;;;;;;;;5052221;28;20400;-65
2021/12/06 14:17:05;;;;;;;0.40;0.10;;;;;;;;;;5051904;28;20017;-66
2021/12/06 14:19:30;;;;;;;1.30;0.10;;;;;;;;;;5051595;28;20031;-66
2021/12/06 14:21:57;;;;;;;0.60;0.20;;;;;;;;;;5050298;28;20021;-66
2021/12/06 14:24:23;;;;;;;0.45;0.20;;;;;;;;;;5051770;28;20055;-68
2021/12/06 14:26:48;;;;;;;0.73;0.20;;;;;;;;;;5052091;28;20039;-67
2021/12/06 14:29:15;;;;;;;0.25;0.10;;;;;;;;;;5051471;28;20025;-66
2021/12/06 14:31:41;;;;;;;0.57;0.10;;;;;;;;;;5051932;28;20017;-66
2021/12/06 14:34:07;;;;;;;0.32;0.22;;;;;;;;;;5051175;28;20025;-66
2021/12/06 14:36:32;;;;;;;0.50;0.17;;;;;;;;;;5050700;28;20025;-66
2021/12/06 14:39:05;;;;;;;0.38;0.15;;;;;;;;;;5052255;28;20258;-65
2021/12/06 14:41:31;;;;;;;1.52;0.30;;;;;;;;;;5052061;28;20037;-66
2021/12/06 14:43:56;;;;;;;0.10;0.10;;;;;;;;;;5052276;28;20070;-66
2021/12/06 14:46:21;;;;;;;0.98;0.30;;;;;;;;;;5050640;28;20285;-67
2021/12/06 14:48:48;;;;;;;2.00;0.20;;;;;;;;;;5052244;28;20100;-67
2021/12/06 14:51:13;;;;;;;0.70;0.10;;;;;;;;;;5051993;28;20361;-67
2021/12/06 14:54:04;;;;;;;1.17;0.20;;;;;;;;;;5052298;28;20105;-67
2021/12/06 14:59:17;;;;;;;0.10;0.10;;;;;;;;;;5048726;28;20046;-66
2021/12/06 15:01:43;;;;;;;0.28;0.28;;;;;;;;;;5051635;28;20834;-66
2021/12/06 15:04:27;;;;;;;0.43;0.10;;;;;;;;;;5051871;28;20035;-66
2021/12/06 15:06:53;;;;;;;1.08;0.10;;;;;;;;;;5051791;28;20472;-66